sensor_id;sensor_type;location;lat;lon;timestamp;P1;durP1;ratioP1;P2;durP2;ratioP2
1328;SDS011;658;48.820;9.354;2022-11-25T00:01:35;3.10;;;2.90;;
1328;SDS011;658;48.820;9.354;2022-11-25T00:05:37;2.40;;;2.23;;
1328;SDS011;658;48.820;9.354;2022-11-25T00:09:38;2.40;;;2.20;;
1328;SDS011;658;48.820;9.354;2022-11-25T00:13:39;2.30;;;2.10;;
1328;SDS011;658;48.820;9.354;2022-11-25T00:17:40;2.70;;;2.50;;
1328;SDS011;658;48.820;9.354;2022-11-25T00:21:41;2.57;;;2.37;;
1328;SDS011;658;48.820;9.354;2022-11-25T00:25:42;2.83;;;2.63;;
1328;SDS011;658;48.820;9.354;2022-11-25T00:29:42;2.80;;;2.60;;
1328;SDS011;658;48.820;9.354;2022-11-25T00:33:43;2.53;;;2.33;;
1328;SDS011;658;48.820;9.354;2022-11-25T00:37:44;2.53;;;2.33;;
1328;SDS011;658;48.820;9.354;2022-11-25T00:41:45;2.63;;;2.43;;
1328;SDS011;658;48.820;9.354;2022-11-25T00:46:04;2.60;;;2.40;;
1328;SDS011;658;48.820;9.354;2022-11-25T00:50:05;2.90;;;2.70;;
1328;SDS011;658;48.820;9.354;2022-11-25T00:54:06;2.97;;;2.67;;
1328;SDS011;658;48.820;9.354;2022-11-25T00:58:07;3.00;;;2.70;;
1328;SDS011;658;48.820;9.354;2022-11-25T01:02:08;2.47;;;2.27;;
1328;SDS011;658;48.820;9.354;2022-11-25T01:06:10;2.50;;;2.30;;
1328;SDS011;658;48.820;9.354;2022-11-25T01:10:10;2.40;;;2.30;;
1328;SDS011;658;48.820;9.354;2022-11-25T01:14:11;3.03;;;2.40;;
1328;SDS011;658;48.820;9.354;2022-11-25T01:18:12;2.43;;;2.23;;
1328;SDS011;658;48.820;9.354;2022-11-25T01:22:12;2.87;;;2.53;;
1328;SDS011;658;48.820;9.354;2022-11-25T01:26:14;2.47;;;2.27;;
1328;SDS011;658;48.820;9.354;2022-11-25T01:30:16;2.20;;;2.10;;
1328;SDS011;658;48.820;9.354;2022-11-25T01:34:18;3.00;;;2.80;;
1328;SDS011;658;48.820;9.354;2022-11-25T01:38:19;2.50;;;2.40;;
1328;SDS011;658;48.820;9.354;2022-11-25T01:42:20;2.30;;;2.10;;
1328;SDS011;658;48.820;9.354;2022-11-25T01:50:26;2.30;;;2.20;;
1328;SDS011;658;48.820;9.354;2022-11-25T01:54:28;2.10;;;2.00;;
1328;SDS011;658;48.820;9.354;2022-11-25T01:58:34;2.90;;;2.70;;
1328;SDS011;658;48.820;9.354;2022-11-25T02:02:37;2.30;;;2.20;;
1328;SDS011;658;48.820;9.354;2022-11-25T02:06:38;2.20;;;2.10;;
1328;SDS011;658;48.820;9.354;2022-11-25T02:10:45;2.93;;;2.63;;
1328;SDS011;658;48.820;9.354;2022-11-25T02:14:46;2.20;;;2.10;;
1328;SDS011;658;48.820;9.354;2022-11-25T02:18:50;2.73;;;2.53;;
1328;SDS011;658;48.820;9.354;2022-11-25T02:26:54;2.50;;;2.30;;
1328;SDS011;658;48.820;9.354;2022-11-25T02:30:55;2.40;;;2.20;;
1328;SDS011;658;48.820;9.354;2022-11-25T02:34:56;2.50;;;2.30;;
1328;SDS011;658;48.820;9.354;2022-11-25T02:38:57;2.03;;;1.93;;
1328;SDS011;658;48.820;9.354;2022-11-25T02:43:00;2.50;;;2.40;;
1328;SDS011;658;48.820;9.354;2022-11-25T02:47:01;2.20;;;2.10;;
1328;SDS011;658;48.820;9.354;2022-11-25T02:51:02;2.23;;;2.03;;
1328;SDS011;658;48.820;9.354;2022-11-25T02:55:03;2.30;;;2.20;;
1328;SDS011;658;48.820;9.354;2022-11-25T02:59:04;2.10;;;2.00;;
1328;SDS011;658;48.820;9.354;2022-11-25T03:03:05;2.23;;;2.13;;
1328;SDS011;658;48.820;9.354;2022-11-25T03:07:06;1.90;;;1.80;;
1328;SDS011;658;48.820;9.354;2022-11-25T03:11:07;2.30;;;1.93;;
1328;SDS011;658;48.820;9.354;2022-11-25T03:15:07;2.40;;;2.30;;
1328;SDS011;658;48.820;9.354;2022-11-25T03:19:08;2.03;;;1.93;;
1328;SDS011;658;48.820;9.354;2022-11-25T03:23:09;2.27;;;2.17;;
1328;SDS011;658;48.820;9.354;2022-11-25T03:27:10;2.07;;;1.97;;
1328;SDS011;658;48.820;9.354;2022-11-25T03:31:10;2.90;;;2.20;;
1328;SDS011;658;48.820;9.354;2022-11-25T03:35:11;2.23;;;2.13;;
1328;SDS011;658;48.820;9.354;2022-11-25T03:39:12;1.87;;;1.77;;
1328;SDS011;658;48.820;9.354;2022-11-25T03:43:13;2.03;;;1.93;;
1328;SDS011;658;48.820;9.354;2022-11-25T03:47:14;2.30;;;2.20;;
1328;SDS011;658;48.820;9.354;2022-11-25T03:51:14;1.97;;;1.87;;
1328;SDS011;658;48.820;9.354;2022-11-25T03:55:15;1.90;;;1.80;;
1328;SDS011;658;48.820;9.354;2022-11-25T03:59:15;2.30;;;2.20;;
1328;SDS011;658;48.820;9.354;2022-11-25T04:03:16;2.37;;;2.17;;
1328;SDS011;658;48.820;9.354;2022-11-25T04:07:17;2.40;;;2.20;;
1328;SDS011;658;48.820;9.354;2022-11-25T04:11:17;2.00;;;1.90;;
1328;SDS011;658;48.820;9.354;2022-11-25T04:15:18;2.43;;;2.23;;
1328;SDS011;658;48.820;9.354;2022-11-25T04:19:19;2.23;;;2.03;;
1328;SDS011;658;48.820;9.354;2022-11-25T04:23:19;2.13;;;2.03;;
1328;SDS011;658;48.820;9.354;2022-11-25T04:27:20;2.10;;;2.00;;
1328;SDS011;658;48.820;9.354;2022-11-25T04:31:20;2.07;;;1.97;;
1328;SDS011;658;48.820;9.354;2022-11-25T04:35:21;1.93;;;1.83;;
1328;SDS011;658;48.820;9.354;2022-11-25T04:39:22;2.33;;;2.23;;
1328;SDS011;658;48.820;9.354;2022-11-25T04:43:22;2.00;;;1.90;;
1328;SDS011;658;48.820;9.354;2022-11-25T04:47:23;2.00;;;1.90;;
1328;SDS011;658;48.820;9.354;2022-11-25T04:51:24;2.07;;;1.97;;
1328;SDS011;658;48.820;9.354;2022-11-25T04:55:24;2.17;;;2.00;;
1328;SDS011;658;48.820;9.354;2022-11-25T04:59:25;1.80;;;1.70;;
1328;SDS011;658;48.820;9.354;2022-11-25T05:03:44;2.10;;;2.00;;
1328;SDS011;658;48.820;9.354;2022-11-25T05:07:48;2.27;;;2.17;;
1328;SDS011;658;48.820;9.354;2022-11-25T05:11:49;1.97;;;1.87;;
1328;SDS011;658;48.820;9.354;2022-11-25T05:15:49;2.50;;;2.30;;
1328;SDS011;658;48.820;9.354;2022-11-25T05:19:50;2.67;;;2.47;;
1328;SDS011;658;48.820;9.354;2022-11-25T05:23:52;2.00;;;1.90;;
1328;SDS011;658;48.820;9.354;2022-11-25T05:27:53;2.40;;;2.20;;
1328;SDS011;658;48.820;9.354;2022-11-25T05:31:54;1.97;;;1.87;;
1328;SDS011;658;48.820;9.354;2022-11-25T05:40:00;2.20;;;2.10;;
1328;SDS011;658;48.820;9.354;2022-11-25T05:44:00;2.00;;;1.90;;
1328;SDS011;658;48.820;9.354;2022-11-25T05:48:01;1.87;;;1.77;;
1328;SDS011;658;48.820;9.354;2022-11-25T05:52:01;1.87;;;1.77;;
1328;SDS011;658;48.820;9.354;2022-11-25T05:56:04;2.00;;;1.90;;
1328;SDS011;658;48.820;9.354;2022-11-25T06:00:05;2.37;;;2.20;;
1328;SDS011;658;48.820;9.354;2022-11-25T06:04:07;2.00;;;1.90;;
1328;SDS011;658;48.820;9.354;2022-11-25T06:08:08;1.80;;;1.70;;
1328;SDS011;658;48.820;9.354;2022-11-25T06:12:09;2.10;;;2.00;;
1328;SDS011;658;48.820;9.354;2022-11-25T06:16:11;1.60;;;1.50;;
1328;SDS011;658;48.820;9.354;2022-11-25T06:20:18;2.30;;;2.20;;
1328;SDS011;658;48.820;9.354;2022-11-25T06:24:19;2.07;;;1.87;;
1328;SDS011;658;48.820;9.354;2022-11-25T06:28:20;2.00;;;1.90;;
1328;SDS011;658;48.820;9.354;2022-11-25T06:32:20;2.33;;;2.13;;
1328;SDS011;658;48.820;9.354;2022-11-25T06:36:21;2.00;;;1.90;;
1328;SDS011;658;48.820;9.354;2022-11-25T06:40:22;2.07;;;1.97;;
1328;SDS011;658;48.820;9.354;2022-11-25T06:44:22;2.40;;;2.30;;
1328;SDS011;658;48.820;9.354;2022-11-25T06:48:23;2.40;;;2.30;;
1328;SDS011;658;48.820;9.354;2022-11-25T06:52:23;2.10;;;2.00;;
1328;SDS011;658;48.820;9.354;2022-11-25T06:56:25;2.40;;;2.17;;
1328;SDS011;658;48.820;9.354;2022-11-25T07:00:27;2.30;;;2.10;;
1328;SDS011;658;48.820;9.354;2022-11-25T07:04:27;2.13;;;2.00;;
1328;SDS011;658;48.820;9.354;2022-11-25T07:08:28;2.50;;;2.30;;
1328;SDS011;658;48.820;9.354;2022-11-25T07:12:29;2.50;;;1.83;;
1328;SDS011;658;48.820;9.354;2022-11-25T07:16:30;3.03;;;2.23;;
1328;SDS011;658;48.820;9.354;2022-11-25T07:20:31;1.90;;;1.80;;
1328;SDS011;658;48.820;9.354;2022-11-25T07:24:32;2.43;;;2.33;;
1328;SDS011;658;48.820;9.354;2022-11-25T07:28:32;2.07;;;1.90;;
1328;SDS011;658;48.820;9.354;2022-11-25T07:32:34;2.20;;;2.10;;
1328;SDS011;658;48.820;9.354;2022-11-25T07:36:34;2.30;;;2.20;;
1328;SDS011;658;48.820;9.354;2022-11-25T07:40:35;1.90;;;1.80;;
1328;SDS011;658;48.820;9.354;2022-11-25T07:44:36;2.40;;;2.20;;
1328;SDS011;658;48.820;9.354;2022-11-25T07:48:36;2.60;;;2.50;;
1328;SDS011;658;48.820;9.354;2022-11-25T07:52:37;2.23;;;2.10;;
1328;SDS011;658;48.820;9.354;2022-11-25T07:56:39;2.40;;;2.20;;
1328;SDS011;658;48.820;9.354;2022-11-25T08:00:41;2.90;;;2.10;;
1328;SDS011;658;48.820;9.354;2022-11-25T08:04:42;2.23;;;2.13;;
1328;SDS011;658;48.820;9.354;2022-11-25T08:08:43;2.13;;;2.03;;
1328;SDS011;658;48.820;9.354;2022-11-25T08:12:44;2.27;;;2.07;;
1328;SDS011;658;48.820;9.354;2022-11-25T08:16:45;2.50;;;2.30;;
1328;SDS011;658;48.820;9.354;2022-11-25T08:20:45;1.97;;;1.87;;
1328;SDS011;658;48.820;9.354;2022-11-25T08:24:46;2.47;;;2.27;;
1328;SDS011;658;48.820;9.354;2022-11-25T08:28:47;2.20;;;2.00;;
1328;SDS011;658;48.820;9.354;2022-11-25T08:32:48;2.13;;;1.93;;
1328;SDS011;658;48.820;9.354;2022-11-25T08:36:49;2.20;;;2.00;;
1328;SDS011;658;48.820;9.354;2022-11-25T08:40:50;2.33;;;2.10;;
1328;SDS011;658;48.820;9.354;2022-11-25T08:44:52;2.63;;;2.43;;
1328;SDS011;658;48.820;9.354;2022-11-25T08:48:54;2.50;;;2.30;;
1328;SDS011;658;48.820;9.354;2022-11-25T08:52:55;2.17;;;2.07;;
1328;SDS011;658;48.820;9.354;2022-11-25T08:56:57;2.47;;;2.27;;
1328;SDS011;658;48.820;9.354;2022-11-25T09:00:59;2.10;;;2.00;;
1328;SDS011;658;48.820;9.354;2022-11-25T09:05:00;2.37;;;2.00;;
1328;SDS011;658;48.820;9.354;2022-11-25T09:09:01;2.50;;;2.30;;
1328;SDS011;658;48.820;9.354;2022-11-25T09:13:05;2.50;;;2.30;;
1328;SDS011;658;48.820;9.354;2022-11-25T09:17:10;3.83;;;2.33;;
1328;SDS011;658;48.820;9.354;2022-11-25T09:21:13;2.00;;;1.90;;
1328;SDS011;658;48.820;9.354;2022-11-25T09:25:15;3.53;;;2.33;;
1328;SDS011;658;48.820;9.354;2022-11-25T09:29:16;2.20;;;2.10;;
1328;SDS011;658;48.820;9.354;2022-11-25T09:33:17;2.27;;;2.17;;
1328;SDS011;658;48.820;9.354;2022-11-25T09:37:18;2.00;;;1.90;;
1328;SDS011;658;48.820;9.354;2022-11-25T09:54:47;2.03;;;1.93;;
1328;SDS011;658;48.820;9.354;2022-11-25T09:58:59;2.23;;;2.00;;
1328;SDS011;658;48.820;9.354;2022-11-25T10:07:39;2.77;;;2.50;;
1328;SDS011;658;48.820;9.354;2022-11-25T10:11:56;3.70;;;2.20;;
1328;SDS011;658;48.820;9.354;2022-11-25T10:16:00;2.40;;;2.20;;
1328;SDS011;658;48.820;9.354;2022-11-25T10:20:13;2.60;;;2.40;;
1328;SDS011;658;48.820;9.354;2022-11-25T10:24:24;4.70;;;2.40;;
1328;SDS011;658;48.820;9.354;2022-11-25T10:28:28;2.17;;;2.07;;
1328;SDS011;658;48.820;9.354;2022-11-25T10:32:32;2.30;;;2.20;;
1328;SDS011;658;48.820;9.354;2022-11-25T10:36:40;2.50;;;2.30;;
1328;SDS011;658;48.820;9.354;2022-11-25T10:40:43;2.40;;;2.20;;
1328;SDS011;658;48.820;9.354;2022-11-25T10:44:47;2.27;;;2.10;;
1328;SDS011;658;48.820;9.354;2022-11-25T10:57:19;2.73;;;2.40;;
1328;SDS011;658;48.820;9.354;2022-11-25T11:05:23;3.17;;;2.30;;
1328;SDS011;658;48.820;9.354;2022-11-25T11:09:36;2.83;;;2.37;;
1328;SDS011;658;48.820;9.354;2022-11-25T11:13:39;2.63;;;2.43;;
1328;SDS011;658;48.820;9.354;2022-11-25T11:17:40;3.23;;;2.30;;
1328;SDS011;658;48.820;9.354;2022-11-25T11:21:41;2.80;;;2.60;;
1328;SDS011;658;48.820;9.354;2022-11-25T11:25:53;2.40;;;2.20;;
1328;SDS011;658;48.820;9.354;2022-11-25T11:34:20;3.30;;;2.53;;
1328;SDS011;658;48.820;9.354;2022-11-25T11:47:18;2.33;;;2.20;;
1328;SDS011;658;48.820;9.354;2022-11-25T11:55:27;3.83;;;2.20;;
1328;SDS011;658;48.820;9.354;2022-11-25T12:03:58;2.63;;;2.43;;
1328;SDS011;658;48.820;9.354;2022-11-25T12:08:12;2.80;;;2.60;;
1328;SDS011;658;48.820;9.354;2022-11-25T12:12:19;2.60;;;2.40;;
1328;SDS011;658;48.820;9.354;2022-11-25T12:16:28;2.77;;;2.33;;
1328;SDS011;658;48.820;9.354;2022-11-25T12:20:54;2.60;;;2.27;;
1328;SDS011;658;48.820;9.354;2022-11-25T12:25:22;2.30;;;2.10;;
1328;SDS011;658;48.820;9.354;2022-11-25T12:29:26;2.70;;;2.50;;
1328;SDS011;658;48.820;9.354;2022-11-25T12:33:38;2.53;;;2.33;;
1328;SDS011;658;48.820;9.354;2022-11-25T12:37:55;2.97;;;2.50;;
1328;SDS011;658;48.820;9.354;2022-11-25T12:42:05;2.20;;;2.07;;
1328;SDS011;658;48.820;9.354;2022-11-25T13:12:08;1.90;;;1.80;;
1328;SDS011;658;48.820;9.354;2022-11-25T13:16:15;2.23;;;2.10;;
1328;SDS011;658;48.820;9.354;2022-11-25T13:24:40;2.80;;;2.60;;
1328;SDS011;658;48.820;9.354;2022-11-25T13:28:41;2.23;;;2.00;;
1328;SDS011;658;48.820;9.354;2022-11-25T13:32:41;2.60;;;2.40;;
1328;SDS011;658;48.820;9.354;2022-11-25T13:36:46;2.83;;;1.83;;
1328;SDS011;658;48.820;9.354;2022-11-25T13:40:54;2.53;;;2.33;;
1328;SDS011;658;48.820;9.354;2022-11-25T13:44:57;2.57;;;2.03;;
1328;SDS011;658;48.820;9.354;2022-11-25T13:48:58;2.00;;;1.90;;
1328;SDS011;658;48.820;9.354;2022-11-25T14:01:22;2.03;;;1.93;;
1328;SDS011;658;48.820;9.354;2022-11-25T14:09:41;2.20;;;2.00;;
1328;SDS011;658;48.820;9.354;2022-11-25T14:18:34;2.43;;;2.23;;
1328;SDS011;658;48.820;9.354;2022-11-25T14:22:43;2.50;;;2.30;;
1328;SDS011;658;48.820;9.354;2022-11-25T14:27:26;3.47;;;2.10;;
1328;SDS011;658;48.820;9.354;2022-11-25T14:31:36;2.37;;;2.17;;
1328;SDS011;658;48.820;9.354;2022-11-25T14:35:47;2.90;;;2.10;;
1328;SDS011;658;48.820;9.354;2022-11-25T14:44:49;2.37;;;2.17;;
1328;SDS011;658;48.820;9.354;2022-11-25T14:48:55;2.27;;;2.07;;
1328;SDS011;658;48.820;9.354;2022-11-25T14:52:57;2.53;;;2.20;;
1328;SDS011;658;48.820;9.354;2022-11-25T14:56:57;2.47;;;2.27;;
1328;SDS011;658;48.820;9.354;2022-11-25T15:00:59;2.07;;;1.97;;
1328;SDS011;658;48.820;9.354;2022-11-25T15:13:37;2.60;;;2.40;;
1328;SDS011;658;48.820;9.354;2022-11-25T15:17:39;3.43;;;2.33;;
1328;SDS011;658;48.820;9.354;2022-11-25T15:21:40;2.53;;;2.33;;
1328;SDS011;658;48.820;9.354;2022-11-25T15:25:49;2.77;;;2.00;;
1328;SDS011;658;48.820;9.354;2022-11-25T15:29:54;2.40;;;2.20;;
1328;SDS011;658;48.820;9.354;2022-11-25T15:33:57;2.40;;;2.20;;
1328;SDS011;658;48.820;9.354;2022-11-25T15:38:15;2.20;;;1.90;;
1328;SDS011;658;48.820;9.354;2022-11-25T15:42:33;2.27;;;2.00;;
1328;SDS011;658;48.820;9.354;2022-11-25T15:46:34;2.47;;;2.27;;
1328;SDS011;658;48.820;9.354;2022-11-25T15:50:35;3.63;;;2.13;;
1328;SDS011;658;48.820;9.354;2022-11-25T15:54:44;2.57;;;2.13;;
1328;SDS011;658;48.820;9.354;2022-11-25T15:58:48;1.83;;;1.67;;
1328;SDS011;658;48.820;9.354;2022-11-25T16:02:50;2.90;;;2.30;;
1328;SDS011;658;48.820;9.354;2022-11-25T16:06:54;1.83;;;1.73;;
1328;SDS011;658;48.820;9.354;2022-11-25T16:10:58;9.50;;;2.33;;
1328;SDS011;658;48.820;9.354;2022-11-25T16:15:16;1.97;;;1.83;;
1328;SDS011;658;48.820;9.354;2022-11-25T16:19:18;1.80;;;1.70;;
1328;SDS011;658;48.820;9.354;2022-11-25T16:23:22;2.40;;;2.13;;
1328;SDS011;658;48.820;9.354;2022-11-25T16:27:24;3.03;;;2.00;;
1328;SDS011;658;48.820;9.354;2022-11-25T16:31:26;2.30;;;2.10;;
1328;SDS011;658;48.820;9.354;2022-11-25T16:35:27;2.10;;;1.90;;
1328;SDS011;658;48.820;9.354;2022-11-25T16:39:28;4.57;;;2.30;;
1328;SDS011;658;48.820;9.354;2022-11-25T16:43:28;2.10;;;1.90;;
1328;SDS011;658;48.820;9.354;2022-11-25T16:47:29;1.73;;;1.60;;
1328;SDS011;658;48.820;9.354;2022-11-25T16:51:30;1.90;;;1.80;;
1328;SDS011;658;48.820;9.354;2022-11-25T16:55:30;3.53;;;2.30;;
1328;SDS011;658;48.820;9.354;2022-11-25T16:59:35;2.17;;;1.97;;
1328;SDS011;658;48.820;9.354;2022-11-25T17:03:39;2.00;;;1.90;;
1328;SDS011;658;48.820;9.354;2022-11-25T17:07:41;1.77;;;1.60;;
1328;SDS011;658;48.820;9.354;2022-11-25T17:11:42;2.33;;;1.97;;
1328;SDS011;658;48.820;9.354;2022-11-25T17:15:45;2.50;;;1.90;;
1328;SDS011;658;48.820;9.354;2022-11-25T17:19:46;2.50;;;2.10;;
1328;SDS011;658;48.820;9.354;2022-11-25T17:23:46;2.13;;;1.93;;
1328;SDS011;658;48.820;9.354;2022-11-25T17:27:47;2.30;;;2.10;;
1328;SDS011;658;48.820;9.354;2022-11-25T17:31:49;2.30;;;2.10;;
1328;SDS011;658;48.820;9.354;2022-11-25T17:35:50;2.53;;;2.33;;
1328;SDS011;658;48.820;9.354;2022-11-25T17:39:51;2.37;;;2.10;;
1328;SDS011;658;48.820;9.354;2022-11-25T17:43:52;1.80;;;1.70;;
1328;SDS011;658;48.820;9.354;2022-11-25T17:47:53;2.50;;;2.17;;
1328;SDS011;658;48.820;9.354;2022-11-25T17:51:54;2.43;;;2.23;;
1328;SDS011;658;48.820;9.354;2022-11-25T17:55:55;2.30;;;1.87;;
1328;SDS011;658;48.820;9.354;2022-11-25T17:59:55;2.40;;;2.20;;
1328;SDS011;658;48.820;9.354;2022-11-25T18:03:56;2.30;;;2.13;;
1328;SDS011;658;48.820;9.354;2022-11-25T18:07:57;3.57;;;2.50;;
1328;SDS011;658;48.820;9.354;2022-11-25T18:11:58;3.03;;;2.43;;
1328;SDS011;658;48.820;9.354;2022-11-25T18:16:02;2.63;;;2.30;;
1328;SDS011;658;48.820;9.354;2022-11-25T18:24:17;2.13;;;2.00;;
1328;SDS011;658;48.820;9.354;2022-11-25T18:28:20;2.63;;;2.43;;
1328;SDS011;658;48.820;9.354;2022-11-25T18:32:23;2.37;;;2.17;;
1328;SDS011;658;48.820;9.354;2022-11-25T18:36:24;3.83;;;2.50;;
1328;SDS011;658;48.820;9.354;2022-11-25T18:40:25;2.60;;;2.40;;
1328;SDS011;658;48.820;9.354;2022-11-25T18:44:27;2.37;;;2.20;;
1328;SDS011;658;48.820;9.354;2022-11-25T18:48:28;2.53;;;2.33;;
1328;SDS011;658;48.820;9.354;2022-11-25T18:52:29;2.43;;;2.23;;
1328;SDS011;658;48.820;9.354;2022-11-25T18:56:29;2.83;;;2.63;;
1328;SDS011;658;48.820;9.354;2022-11-25T19:00:30;3.23;;;2.93;;
1328;SDS011;658;48.820;9.354;2022-11-25T19:04:31;5.97;;;2.63;;
1328;SDS011;658;48.820;9.354;2022-11-25T19:08:31;2.63;;;2.43;;
1328;SDS011;658;48.820;9.354;2022-11-25T19:12:32;2.73;;;2.53;;
1328;SDS011;658;48.820;9.354;2022-11-25T19:16:33;2.77;;;2.57;;
1328;SDS011;658;48.820;9.354;2022-11-25T19:20:34;2.83;;;2.63;;
1328;SDS011;658;48.820;9.354;2022-11-25T19:24:34;3.23;;;3.00;;
1328;SDS011;658;48.820;9.354;2022-11-25T19:28:35;2.70;;;2.50;;
1328;SDS011;658;48.820;9.354;2022-11-25T19:32:36;3.23;;;2.87;;
1328;SDS011;658;48.820;9.354;2022-11-25T19:36:36;3.17;;;2.93;;
1328;SDS011;658;48.820;9.354;2022-11-25T19:40:37;3.07;;;2.80;;
1328;SDS011;658;48.820;9.354;2022-11-25T19:44:39;4.27;;;3.27;;
1328;SDS011;658;48.820;9.354;2022-11-25T19:48:41;3.00;;;2.80;;
1328;SDS011;658;48.820;9.354;2022-11-25T19:52:41;3.50;;;3.20;;
1328;SDS011;658;48.820;9.354;2022-11-25T19:56:42;3.00;;;2.70;;
1328;SDS011;658;48.820;9.354;2022-11-25T20:00:44;3.60;;;3.30;;
1328;SDS011;658;48.820;9.354;2022-11-25T20:04:47;3.20;;;2.90;;
1328;SDS011;658;48.820;9.354;2022-11-25T20:08:50;3.20;;;3.00;;
1328;SDS011;658;48.820;9.354;2022-11-25T20:12:51;2.83;;;2.63;;
1328;SDS011;658;48.820;9.354;2022-11-25T20:16:53;3.90;;;3.60;;
1328;SDS011;658;48.820;9.354;2022-11-25T20:20:55;3.33;;;3.03;;
1328;SDS011;658;48.820;9.354;2022-11-25T20:25:05;3.67;;;3.37;;
1328;SDS011;658;48.820;9.354;2022-11-25T20:29:12;3.80;;;3.50;;
1328;SDS011;658;48.820;9.354;2022-11-25T20:33:16;3.37;;;3.07;;
1328;SDS011;658;48.820;9.354;2022-11-25T20:37:16;3.50;;;3.20;;
1328;SDS011;658;48.820;9.354;2022-11-25T20:41:22;3.60;;;3.30;;
1328;SDS011;658;48.820;9.354;2022-11-25T20:45:23;3.50;;;3.30;;
1328;SDS011;658;48.820;9.354;2022-11-25T20:49:24;3.50;;;3.20;;
1328;SDS011;658;48.820;9.354;2022-11-25T20:53:28;3.73;;;3.43;;
1328;SDS011;658;48.820;9.354;2022-11-25T20:57:31;4.07;;;3.67;;
1328;SDS011;658;48.820;9.354;2022-11-25T21:01:34;3.57;;;3.37;;
1328;SDS011;658;48.820;9.354;2022-11-25T21:05:35;4.27;;;3.97;;
1328;SDS011;658;48.820;9.354;2022-11-25T21:09:36;4.57;;;3.80;;
1328;SDS011;658;48.820;9.354;2022-11-25T21:13:36;3.60;;;3.30;;
1328;SDS011;658;48.820;9.354;2022-11-25T21:17:37;4.47;;;4.07;;
1328;SDS011;658;48.820;9.354;2022-11-25T21:21:39;3.90;;;3.60;;
1328;SDS011;658;48.820;9.354;2022-11-25T21:25:42;4.53;;;4.13;;
1328;SDS011;658;48.820;9.354;2022-11-25T21:29:44;4.53;;;4.13;;
1328;SDS011;658;48.820;9.354;2022-11-25T21:33:45;4.00;;;3.70;;
1328;SDS011;658;48.820;9.354;2022-11-25T21:37:46;4.40;;;4.10;;
1328;SDS011;658;48.820;9.354;2022-11-25T21:41:47;4.43;;;4.03;;
1328;SDS011;658;48.820;9.354;2022-11-25T21:45:49;3.73;;;3.53;;
1328;SDS011;658;48.820;9.354;2022-11-25T21:49:52;4.57;;;4.17;;
1328;SDS011;658;48.820;9.354;2022-11-25T21:53:54;4.37;;;4.07;;
1328;SDS011;658;48.820;9.354;2022-11-25T21:57:54;4.80;;;4.40;;
1328;SDS011;658;48.820;9.354;2022-11-25T22:01:55;4.90;;;4.50;;
1328;SDS011;658;48.820;9.354;2022-11-25T22:05:56;4.60;;;4.20;;
1328;SDS011;658;48.820;9.354;2022-11-25T22:09:56;4.57;;;4.17;;
1328;SDS011;658;48.820;9.354;2022-11-25T22:13:57;4.70;;;4.40;;
1328;SDS011;658;48.820;9.354;2022-11-25T22:17:59;4.53;;;4.23;;
1328;SDS011;658;48.820;9.354;2022-11-25T22:22:00;4.43;;;4.13;;
1328;SDS011;658;48.820;9.354;2022-11-25T22:26:01;5.10;;;4.70;;
1328;SDS011;658;48.820;9.354;2022-11-25T22:30:03;5.70;;;5.30;;
1328;SDS011;658;48.820;9.354;2022-11-25T22:34:05;5.37;;;4.87;;
1328;SDS011;658;48.820;9.354;2022-11-25T22:38:12;6.83;;;6.13;;
1328;SDS011;658;48.820;9.354;2022-11-25T22:42:16;7.23;;;6.50;;
1328;SDS011;658;48.820;9.354;2022-11-25T22:46:24;9.10;;;8.13;;
1328;SDS011;658;48.820;9.354;2022-11-25T22:50:26;8.70;;;7.57;;
1328;SDS011;658;48.820;9.354;2022-11-25T22:54:28;11.43;;;9.37;;
1328;SDS011;658;48.820;9.354;2022-11-25T22:58:29;16.43;;;11.57;;
1328;SDS011;658;48.820;9.354;2022-11-25T23:02:31;13.23;;;10.13;;
1328;SDS011;658;48.820;9.354;2022-11-25T23:06:33;15.50;;;11.53;;
1328;SDS011;658;48.820;9.354;2022-11-25T23:10:34;14.50;;;12.00;;
1328;SDS011;658;48.820;9.354;2022-11-25T23:14:35;14.53;;;11.30;;
1328;SDS011;658;48.820;9.354;2022-11-25T23:18:44;15.93;;;12.67;;
1328;SDS011;658;48.820;9.354;2022-11-25T23:22:45;17.20;;;12.33;;
1328;SDS011;658;48.820;9.354;2022-11-25T23:26:46;13.80;;;11.87;;
1328;SDS011;658;48.820;9.354;2022-11-25T23:30:47;13.73;;;12.33;;
1328;SDS011;658;48.820;9.354;2022-11-25T23:34:53;17.47;;;14.10;;
1328;SDS011;658;48.820;9.354;2022-11-25T23:38:57;17.77;;;12.83;;
1328;SDS011;658;48.820;9.354;2022-11-25T23:42:59;17.43;;;14.07;;
1328;SDS011;658;48.820;9.354;2022-11-25T23:47:02;19.23;;;13.93;;
1328;SDS011;658;48.820;9.354;2022-11-25T23:51:05;17.80;;;14.23;;
1328;SDS011;658;48.820;9.354;2022-11-25T23:55:08;14.73;;;13.13;;
1328;SDS011;658;48.820;9.354;2022-11-25T23:59:14;17.73;;;14.80;;
